createdAt,value
2019-04-23T00:00:07.654Z,49.86
2019-04-23T00:02:52.427Z,50.42
2019-04-23T00:05:31.813Z,50.80
2019-04-23T00:08:04.683Z,51.12
2019-04-23T00:13:12.974Z,51.90
2019-04-23T00:16:00.369Z,53.39
2019-04-23T00:18:30.730Z,54.84
2019-04-23T00:21:13.868Z,55.98
2019-04-23T00:23:47.846Z,56.09
2019-04-23T00:26:25.189Z,55.89
2019-04-23T00:28:50.498Z,56.10
2019-04-23T00:31:24.735Z,57.33
2019-04-23T00:33:57.342Z,56.96
2019-04-23T00:36:32.447Z,57.78
2019-04-23T00:38:54.289Z,57.65
2019-04-23T00:41:39.185Z,58.34
2019-04-23T00:49:12.139Z,59.10
2019-04-23T00:51:45.627Z,59.43
2019-04-23T00:54:20.851Z,60.29
2019-04-23T00:56:54.550Z,60.09
2019-04-23T00:59:23.217Z,60.22
2019-04-23T01:01:56.851Z,60.00
2019-04-23T01:07:04.555Z,60.13
2019-04-23T01:09:45.644Z,61.24
2019-04-23T01:12:14.129Z,60.53
2019-04-23T01:14:48.283Z,60.94
2019-04-23T01:17:29.973Z,61.14
2019-04-23T01:19:54.806Z,60.98
2019-04-23T01:22:06.590Z,60.51
2019-04-23T01:25:15.115Z,60.60
2019-04-23T01:28:09.405Z,61.28
2019-04-23T01:30:41.111Z,60.47
2019-04-23T01:33:21.666Z,61.38
2019-04-23T01:35:55.793Z,61.99
2019-04-23T01:38:18.406Z,62.46
2019-04-23T01:41:07.710Z,61.84
2019-04-23T01:43:23.769Z,62.40
2019-04-23T01:45:54.576Z,61.76
2019-04-23T01:48:39.221Z,61.85
2019-04-23T01:51:20.438Z,61.47
2019-04-23T01:53:38.677Z,60.99
2019-04-23T01:56:17.238Z,61.11
2019-04-23T01:58:44.029Z,62.59
2019-04-23T02:01:20.816Z,62.94
2019-04-23T02:03:54.753Z,63.08
2019-04-23T02:06:22.069Z,64.33
2019-04-23T02:09:00.430Z,63.24
2019-04-23T02:11:25.657Z,64.08
2019-04-23T02:14:03.201Z,65.35
2019-04-23T02:16:36.218Z,65.74
2019-04-23T02:19:09.959Z,67.23
2019-04-23T02:21:47.483Z,65.40
2019-04-23T02:24:12.152Z,64.85
2019-04-23T02:26:46.707Z,64.33
2019-04-23T02:29:28.770Z,66.70
2019-04-23T02:32:03.342Z,65.92
2019-04-23T02:34:45.085Z,65.52
2019-04-23T02:37:00.472Z,64.70
2019-04-23T02:39:46.623Z,65.74
2019-04-23T02:44:39.331Z,65.24
2019-04-23T02:49:55.410Z,64.68
2019-04-23T02:52:23.155Z,65.14
2019-04-23T02:55:15.545Z,65.97
2019-04-23T02:57:28.119Z,65.55
2019-04-23T03:02:47.868Z,66.46
2019-04-23T03:05:03.579Z,65.47
2019-04-23T03:10:14.469Z,64.97
2019-04-23T03:13:01.686Z,65.74
2019-04-23T03:21:24.461Z,65.57
2019-04-23T03:23:52.042Z,65.94
2019-04-23T03:26:36.860Z,66.54
2019-04-23T03:28:56.870Z,67.49
2019-04-23T03:34:34.554Z,67.45
2019-04-23T03:43:51.514Z,67.57
2019-04-23T03:49:21.824Z,66.85
2019-04-23T03:51:43.657Z,67.13
2019-04-23T03:59:26.595Z,67.85
2019-04-23T04:01:59.834Z,67.73
2019-04-23T04:07:05.612Z,66.89
2019-04-23T04:09:34.905Z,66.66
2019-04-23T04:12:05.977Z,66.98
2019-04-23T04:14:38.412Z,67.72
2019-04-23T04:17:09.680Z,66.77
2019-04-23T04:19:44.801Z,66.72
2019-04-23T04:22:20.679Z,67.34
2019-04-23T04:24:59.053Z,67.81
2019-04-23T04:27:33.275Z,68.07
2019-04-23T04:29:52.284Z,68.67
2019-04-23T04:32:22.037Z,68.71
2019-04-23T04:42:37.056Z,68.91
2019-04-23T04:45:16.789Z,68.66
2019-04-23T04:47:42.696Z,68.54
2019-04-23T04:50:10.332Z,69.38
2019-04-23T04:52:46.946Z,70.30
2019-04-23T04:57:52.220Z,69.98
2019-04-23T05:03:12.661Z,70.10
2019-04-23T05:05:58.269Z,69.31
2019-04-23T05:07:54.743Z,69.56
2019-04-23T05:10:44.162Z,69.30
2019-04-23T05:13:22.228Z,68.89
2019-04-23T05:15:37.227Z,68.80
2019-04-23T05:23:42.912Z,69.16
2019-04-23T05:26:23.948Z,68.31
2019-04-23T05:33:58.160Z,68.30
2019-04-23T05:36:29.205Z,69.10
2019-04-23T05:44:11.607Z,69.36
2019-04-23T05:49:11.010Z,69.79
2019-04-23T05:51:51.005Z,69.00
2019-04-23T05:56:46.736Z,69.10
2019-04-23T05:59:16.368Z,69.37
2019-04-23T06:01:58.820Z,69.26
2019-04-23T06:07:14.714Z,69.78
2019-04-23T06:09:35.317Z,69.20
2019-04-23T06:12:08.247Z,69.31
2019-04-23T06:14:41.069Z,69.08
2019-04-23T06:17:14.446Z,69.29
2019-04-23T06:19:44.292Z,68.96
2019-04-23T06:22:25.027Z,68.81
2019-04-23T06:24:46.722Z,68.15
2019-04-23T06:27:27.794Z,68.30
2019-04-23T06:29:49.875Z,68.11
2019-04-23T06:32:25.842Z,67.57
2019-04-23T06:35:00.956Z,67.35
2019-04-23T06:40:08.428Z,63.04
2019-04-23T06:42:56.342Z,61.50
2019-04-23T06:45:25.752Z,60.56
2019-04-23T06:48:02.237Z,60.47
2019-04-23T06:50:36.691Z,60.29
2019-04-23T06:53:02.024Z,58.72
2019-04-23T06:55:36.021Z,59.16
2019-04-23T06:58:12.353Z,58.06
2019-04-23T07:00:42.104Z,59.01
2019-04-23T07:06:22.297Z,55.78
2019-04-23T07:09:03.091Z,56.16
2019-04-23T07:13:53.442Z,55.01
2019-04-23T07:16:14.666Z,54.60
2019-04-23T07:18:48.939Z,54.45
2019-04-23T07:21:22.184Z,54.80
2019-04-23T07:24:08.525Z,55.04
2019-04-23T07:28:59.966Z,54.67
2019-04-23T07:31:37.951Z,53.30
2019-04-23T07:34:20.433Z,53.60
2019-04-23T07:36:40.864Z,51.59
2019-04-23T07:39:25.295Z,51.31
2019-04-23T07:45:27.988Z,52.27
2019-04-23T07:48:17.327Z,51.44
2019-04-23T07:50:54.478Z,51.23
2019-04-23T07:58:49.499Z,53.34
2019-04-23T08:01:11.280Z,53.42
2019-04-23T08:03:45.192Z,53.60
2019-04-23T08:06:12.122Z,51.10
2019-04-23T08:08:48.796Z,49.42
2019-04-23T08:11:34.310Z,49.16
2019-04-23T08:21:56.022Z,49.90
2019-04-23T08:24:29.594Z,48.67
2019-04-23T08:27:18.050Z,49.21
2019-04-23T08:29:54.413Z,47.69
2019-04-23T08:32:21.707Z,48.49
2019-04-23T08:35:01.652Z,47.69
2019-04-23T08:37:51.205Z,47.37
2019-04-23T08:40:02.248Z,46.92
2019-04-23T08:42:52.716Z,46.56
2019-04-23T08:53:30.881Z,46.69
2019-04-23T08:58:25.877Z,45.74
2019-04-23T09:03:33.292Z,45.76
2019-04-23T09:08:33.919Z,45.33
2019-04-23T09:11:19.433Z,44.57
2019-04-23T09:13:53.456Z,45.21
2019-04-23T09:16:12.003Z,46.07
2019-04-23T09:19:04.609Z,45.75
2019-04-23T09:21:17.455Z,46.12
2019-04-23T09:26:15.705Z,45.83
2019-04-23T09:32:11.106Z,45.83
2019-04-23T09:34:45.997Z,45.16
2019-04-23T09:40:28.341Z,43.10
2019-04-23T09:43:08.625Z,43.19
2019-04-23T09:46:13.701Z,43.28
2019-04-23T09:48:44.211Z,43.17
2019-04-23T09:51:07.852Z,42.79
2019-04-23T09:53:44.444Z,43.19
2019-04-23T09:56:14.638Z,44.55
2019-04-23T09:58:51.750Z,42.73
2019-04-23T10:01:25.951Z,43.87
2019-04-23T10:03:46.161Z,42.82
2019-04-23T10:06:14.844Z,44.00
2019-04-23T10:08:49.045Z,44.40
2019-04-23T10:11:15.947Z,42.91
2019-04-23T10:13:48.184Z,42.69
2019-04-23T10:16:21.520Z,42.89
2019-04-23T10:18:53.329Z,41.77
2019-04-23T10:21:25.514Z,42.78
2019-04-23T10:23:57.091Z,42.58
2019-04-23T10:26:28.377Z,42.95
2019-04-23T10:29:02.486Z,42.30
2019-04-23T10:31:33.572Z,43.96
2019-04-23T10:34:06.218Z,41.69
2019-04-23T10:36:38.677Z,42.87
2019-04-23T10:39:17.613Z,41.73
2019-04-23T10:41:46.279Z,42.14
2019-04-23T10:44:23.655Z,41.79
2019-04-23T10:47:45.196Z,41.78
2019-04-23T10:50:49.541Z,41.53
2019-04-23T11:00:53.439Z,44.02
2019-04-23T11:03:42.249Z,42.18
2019-04-23T11:08:30.936Z,43.80
2019-04-23T11:11:07.717Z,40.77
2019-04-23T11:26:30.707Z,40.98
2019-04-23T11:28:59.780Z,40.24
2019-04-23T11:31:39.127Z,40.15
2019-04-23T11:34:11.037Z,41.35
2019-04-23T11:39:12.815Z,41.97
2019-04-23T11:44:23.397Z,41.52
2019-04-23T11:46:57.194Z,39.64
2019-04-23T11:49:51.041Z,40.26
2019-04-23T11:52:05.374Z,40.43
2019-04-23T11:59:36.149Z,39.74
2019-04-23T12:02:32.767Z,39.84
2019-04-23T12:05:29.001Z,38.17
2019-04-23T12:08:19.970Z,37.93
2019-04-23T12:11:15.304Z,38.44
2019-04-23T12:13:37.906Z,39.03
2019-04-23T12:16:16.394Z,37.73
2019-04-23T12:18:43.315Z,36.96
2019-04-23T12:21:22.495Z,36.70
2019-04-23T12:24:00.707Z,36.35
2019-04-23T12:26:35.501Z,37.86
2019-04-23T12:29:02.816Z,36.32
2019-04-23T12:31:34.836Z,37.89
2019-04-23T12:34:05.080Z,37.36
2019-04-23T12:37:06.503Z,37.04
2019-04-23T12:39:36.241Z,37.17
2019-04-23T12:42:29.935Z,37.22
2019-04-23T12:44:52.550Z,35.55
2019-04-23T12:47:25.485Z,36.13
2019-04-23T12:50:05.024Z,36.77
2019-04-23T12:52:30.827Z,36.93
2019-04-23T12:57:29.771Z,35.17
2019-04-23T12:59:59.850Z,35.78
2019-04-23T13:02:40.248Z,34.16
2019-04-23T13:05:05.232Z,32.92
2019-04-23T13:07:38.871Z,33.84
2019-04-23T13:15:15.755Z,30.87
2019-04-23T13:20:23.268Z,30.56
2019-04-23T13:30:53.044Z,30.18
2019-04-23T13:33:36.150Z,32.25
2019-04-23T13:41:08.423Z,33.20
2019-04-23T13:43:40.975Z,30.58
2019-04-23T13:48:40.124Z,33.62
2019-04-23T13:51:23.826Z,33.75
2019-04-23T13:53:58.983Z,29.85
2019-04-23T13:56:24.856Z,30.27
2019-04-23T13:58:59.774Z,30.11
2019-04-23T14:04:04.669Z,30.95
2019-04-23T14:06:36.740Z,30.74
2019-04-23T14:09:12.672Z,30.31
2019-04-23T14:11:38.619Z,29.52
2019-04-23T14:14:25.483Z,32.70
2019-04-23T14:17:21.668Z,29.61
2019-04-23T14:19:18.023Z,28.31
2019-04-23T14:22:04.994Z,29.75
2019-04-23T14:24:38.497Z,29.49
2019-04-23T14:27:08.722Z,29.53
2019-04-23T14:32:20.852Z,34.52
2019-04-23T14:34:59.376Z,36.44
2019-04-23T14:39:47.806Z,30.56
2019-04-23T14:42:26.501Z,34.30
2019-04-23T14:45:21.389Z,34.54
2019-04-23T14:47:39.044Z,32.08
2019-04-23T14:50:24.328Z,31.86
2019-04-23T14:52:38.831Z,30.24
2019-04-23T14:55:41.719Z,29.50
2019-04-23T14:57:51.690Z,30.84
2019-04-23T15:00:18.210Z,32.11
2019-04-23T15:02:54.618Z,31.71
2019-04-23T15:05:25.848Z,34.71
2019-04-23T15:07:51.444Z,32.07
2019-04-23T15:10:34.470Z,39.15
2019-04-23T15:13:05.102Z,42.08
2019-04-23T15:15:40.516Z,42.15
2019-04-23T15:18:13.755Z,42.61
2019-04-23T15:26:41.478Z,38.14
2019-04-23T15:27:13.487Z,37.75
2019-04-23T15:28:11.345Z,37.19
2019-04-23T15:31:03.995Z,37.96
2019-04-23T15:36:25.373Z,30.82
2019-04-23T15:41:15.258Z,29.59
2019-04-23T15:43:51.143Z,28.50
2019-04-23T15:46:25.297Z,32.91
2019-04-23T15:49:01.503Z,31.54
2019-04-23T15:53:58.319Z,30.09
2019-04-23T15:59:13.557Z,30.77
2019-04-23T16:01:34.635Z,29.97
2019-04-23T16:03:43.392Z,28.91
2019-04-23T16:06:15.669Z,30.07
2019-04-23T16:09:06.465Z,28.89
2019-04-23T16:11:47.999Z,31.42
2019-04-23T16:14:22.403Z,33.59
2019-04-23T16:17:04.939Z,35.53
2019-04-23T16:19:48.599Z,30.10
2019-04-23T16:22:12.185Z,33.81
2019-04-23T16:24:48.775Z,28.16
2019-04-23T16:27:29.335Z,31.72
2019-04-23T16:30:06.239Z,35.08
2019-04-23T16:35:31.034Z,34.71
2019-04-23T16:38:04.316Z,32.12
2019-04-23T16:40:31.530Z,35.66
2019-04-23T16:43:05.459Z,38.63
2019-04-23T16:48:14.140Z,34.92
2019-04-23T16:50:57.785Z,34.41
2019-04-23T16:53:16.092Z,32.02
2019-04-23T16:55:52.250Z,34.94
2019-04-23T16:58:25.312Z,36.82
2019-04-23T17:01:00.234Z,39.74
2019-04-23T17:05:56.775Z,39.29
2019-04-23T17:08:42.233Z,40.97
2019-04-23T17:11:13.070Z,42.89
2019-04-23T17:13:44.743Z,44.39
2019-04-23T17:18:41.711Z,45.30
2019-04-23T17:21:24.154Z,45.39
2019-04-23T17:23:56.578Z,46.42
2019-04-23T17:26:20.545Z,47.40
2019-04-23T17:28:54.481Z,48.31
2019-04-23T17:33:58.935Z,49.68
2019-04-23T17:39:21.223Z,50.62
2019-04-23T17:45:17.095Z,50.24
2019-04-23T17:47:37.535Z,50.04
2019-04-23T17:50:58.024Z,50.46
2019-04-23T17:52:45.643Z,51.85
2019-04-23T17:55:17.702Z,51.21
2019-04-23T18:00:30.596Z,52.08
2019-04-23T18:05:18.251Z,51.89
2019-04-23T18:08:11.277Z,51.66
2019-04-23T18:15:24.331Z,51.35
2019-04-23T18:18:13.620Z,52.49
2019-04-23T18:21:21.362Z,52.68
2019-04-23T18:27:04.982Z,53.45
2019-04-23T18:35:24.030Z,54.52
2019-04-23T18:38:04.803Z,54.19
2019-04-23T18:40:40.399Z,54.08
2019-04-23T18:43:26.862Z,54.26
2019-04-23T18:45:46.795Z,54.27
2019-04-23T18:53:43.444Z,54.57
2019-04-23T19:06:38.329Z,55.56
2019-04-23T19:09:47.460Z,55.85
2019-04-23T19:12:30.167Z,56.11
2019-04-23T19:15:04.018Z,56.13
2019-04-23T19:17:46.454Z,56.34
2019-04-23T19:20:07.238Z,56.52
2019-04-23T19:25:05.805Z,57.36
2019-04-23T19:27:40.491Z,57.07
2019-04-23T19:36:05.187Z,59.51
2019-04-23T19:38:20.392Z,59.65
2019-04-23T19:41:02.209Z,59.79
2019-04-23T19:43:37.136Z,59.55
2019-04-23T19:46:03.958Z,58.82
2019-04-23T19:48:42.428Z,59.35
2019-04-23T19:51:06.033Z,59.99
2019-04-23T19:58:46.163Z,59.15
2019-04-23T20:03:50.949Z,58.87
2019-04-23T20:09:10.650Z,59.19
2019-04-23T20:11:26.662Z,59.36
2019-04-23T20:16:40.141Z,59.11
2019-04-23T20:18:57.612Z,59.50
2019-04-23T20:21:42.729Z,60.35
2019-04-23T20:24:20.332Z,60.33
2019-04-23T20:26:29.288Z,60.72
2019-04-23T20:29:45.448Z,61.55
2019-04-23T20:37:02.868Z,61.56
2019-04-23T20:39:47.118Z,61.27
2019-04-23T20:47:16.124Z,61.68
2019-04-23T20:49:48.955Z,60.67
2019-04-23T20:52:35.819Z,60.62
2019-04-23T20:55:02.339Z,60.94
2019-04-23T20:58:01.301Z,60.93
2019-04-23T21:00:27.534Z,61.43
2019-04-23T21:03:25.975Z,61.65
2019-04-23T21:05:27.152Z,61.96
2019-04-23T21:08:33.278Z,61.96
2019-04-23T21:18:33.099Z,62.91
2019-04-23T21:20:56.881Z,64.30
2019-04-23T21:26:07.967Z,65.76
2019-04-23T21:34:05.945Z,64.08
2019-04-23T21:39:47.935Z,63.90
2019-04-23T21:42:14.059Z,63.96
2019-04-23T21:44:45.416Z,64.13
2019-04-23T21:47:21.826Z,64.63
2019-04-23T21:50:02.915Z,65.00
2019-04-23T21:52:25.763Z,64.87
2019-04-23T21:54:56.817Z,64.49
2019-04-23T21:57:41.762Z,65.01
2019-04-23T21:59:59.412Z,65.47
2019-04-23T22:02:54.744Z,65.02
2019-04-23T22:05:09.274Z,65.49
2019-04-23T22:07:51.540Z,65.68
2019-04-23T22:10:17.820Z,65.54
2019-04-23T22:13:13.016Z,65.46
2019-04-23T22:15:22.294Z,65.91
2019-04-23T22:17:49.679Z,65.89
2019-04-23T22:20:34.479Z,65.96
2019-04-23T22:23:05.467Z,66.09
2019-04-23T22:25:41.743Z,66.23
2019-04-23T22:28:08.280Z,66.54
2019-04-23T22:30:49.675Z,66.58
2019-04-23T22:33:09.885Z,67.05
2019-04-23T22:35:51.461Z,67.05
2019-04-23T22:40:56.244Z,66.87
2019-04-23T22:43:25.253Z,66.87
2019-04-23T22:46:02.883Z,66.61
2019-04-23T22:48:34.217Z,65.75
2019-04-23T22:51:18.611Z,65.61
2019-04-23T22:53:38.519Z,65.68
2019-04-23T22:56:06.544Z,65.90
2019-04-23T22:58:51.278Z,66.07
2019-04-23T23:06:49.404Z,66.08
2019-04-23T23:11:56.000Z,67.13
2019-04-23T23:14:22.424Z,67.69
2019-04-23T23:16:55.164Z,68.25
2019-04-23T23:19:28.502Z,69.03
2019-04-23T23:22:03.297Z,70.64
2019-04-23T23:24:28.144Z,69.98
2019-04-23T23:27:05.915Z,69.61
2019-04-23T23:29:46.601Z,68.56
2019-04-23T23:32:26.157Z,68.46
2019-04-23T23:35:07.841Z,68.65
2019-04-23T23:37:15.652Z,69.02
2019-04-23T23:39:50.159Z,69.23
2019-04-23T23:42:19.083Z,69.64
2019-04-23T23:50:01.007Z,68.83
2019-04-23T23:52:42.373Z,69.43
2019-04-23T23:55:07.749Z,69.41
2019-04-23T23:57:30.430Z,69.38
